sensor_id;sensor_type;location;lat;lon;timestamp;pressure;altitude;pressure_sealevel;temperature;humidity
16793;BME280;8513;42.662;23.350;2023-04-06T00:01:49;94642.09;;;1.61;52.36
16793;BME280;8513;42.662;23.350;2023-04-06T00:04:15;94636.50;;;1.54;52.07
16793;BME280;8513;42.662;23.350;2023-04-06T00:06:41;94639.72;;;1.45;52.80
16793;BME280;8513;42.662;23.350;2023-04-06T00:09:06;94636.06;;;1.60;52.02
16793;BME280;8513;42.662;23.350;2023-04-06T00:11:32;94637.44;;;1.53;52.57
16793;BME280;8513;42.662;23.350;2023-04-06T00:13:57;94637.09;;;1.58;52.08
16793;BME280;8513;42.662;23.350;2023-04-06T00:16:23;94624.88;;;1.60;52.00
16793;BME280;8513;42.662;23.350;2023-04-06T00:18:48;94626.03;;;1.56;52.38
16793;BME280;8513;42.662;23.350;2023-04-06T00:21:14;94632.63;;;1.60;52.30
16793;BME280;8513;42.662;23.350;2023-04-06T00:23:40;94626.84;;;1.69;52.30
16793;BME280;8513;42.662;23.350;2023-04-06T00:26:06;94626.09;;;1.67;52.22
16793;BME280;8513;42.662;23.350;2023-04-06T00:28:31;94620.94;;;1.54;52.68
16793;BME280;8513;42.662;23.350;2023-04-06T00:30:57;94631.09;;;1.57;52.05
16793;BME280;8513;42.662;23.350;2023-04-06T00:33:23;94620.31;;;1.63;52.51
16793;BME280;8513;42.662;23.350;2023-04-06T00:35:49;94612.53;;;1.63;52.36
16793;BME280;8513;42.662;23.350;2023-04-06T00:38:15;94614.47;;;1.72;52.14
16793;BME280;8513;42.662;23.350;2023-04-06T00:40:41;94612.78;;;1.47;52.62
16793;BME280;8513;42.662;23.350;2023-04-06T00:43:07;94616.19;;;1.48;52.53
16793;BME280;8513;42.662;23.350;2023-04-06T00:45:34;94611.91;;;1.60;52.39
16793;BME280;8513;42.662;23.350;2023-04-06T00:48:00;94610.09;;;1.36;53.09
16793;BME280;8513;42.662;23.350;2023-04-06T00:50:27;94598.56;;;1.53;52.81
16793;BME280;8513;42.662;23.350;2023-04-06T00:52:53;94598.94;;;1.60;52.38
16793;BME280;8513;42.662;23.350;2023-04-06T00:55:19;94601.97;;;1.53;52.51
16793;BME280;8513;42.662;23.350;2023-04-06T00:57:44;94602.50;;;1.59;52.51
16793;BME280;8513;42.662;23.350;2023-04-06T01:00:11;94600.56;;;1.73;52.11
16793;BME280;8513;42.662;23.350;2023-04-06T01:02:38;94613.69;;;1.59;52.58
16793;BME280;8513;42.662;23.350;2023-04-06T01:05:03;94611.53;;;1.53;52.92
16793;BME280;8513;42.662;23.350;2023-04-06T01:07:29;94606.06;;;1.45;53.30
16793;BME280;8513;42.662;23.350;2023-04-06T01:10:07;94603.69;;;1.42;52.72
16793;BME280;8513;42.662;23.350;2023-04-06T01:12:33;94601.72;;;1.32;53.32
16793;BME280;8513;42.662;23.350;2023-04-06T01:14:59;94589.63;;;1.57;52.56
16793;BME280;8513;42.662;23.350;2023-04-06T01:17:24;94598.50;;;1.42;53.48
16793;BME280;8513;42.662;23.350;2023-04-06T01:19:50;94585.84;;;1.50;53.17
16793;BME280;8513;42.662;23.350;2023-04-06T01:22:19;94587.91;;;1.45;53.17
16793;BME280;8513;42.662;23.350;2023-04-06T01:24:45;94591.84;;;1.38;53.51
16793;BME280;8513;42.662;23.350;2023-04-06T01:27:11;94592.06;;;1.47;53.54
16793;BME280;8513;42.662;23.350;2023-04-06T01:29:36;94588.19;;;1.53;53.12
16793;BME280;8513;42.662;23.350;2023-04-06T01:32:02;94588.81;;;1.57;53.04
16793;BME280;8513;42.662;23.350;2023-04-06T01:34:28;94580.81;;;1.60;52.79
16793;BME280;8513;42.662;23.350;2023-04-06T01:36:53;94580.38;;;1.42;53.50
16793;BME280;8513;42.662;23.350;2023-04-06T01:39:20;94579.72;;;1.38;53.68
16793;BME280;8513;42.662;23.350;2023-04-06T01:41:45;94581.97;;;1.56;53.41
16793;BME280;8513;42.662;23.350;2023-04-06T01:44:12;94582.06;;;1.54;53.22
16793;BME280;8513;42.662;23.350;2023-04-06T01:46:38;94578.28;;;1.71;52.77
16793;BME280;8513;42.662;23.350;2023-04-06T01:49:03;94573.59;;;1.76;52.87
16793;BME280;8513;42.662;23.350;2023-04-06T01:51:29;94594.94;;;1.56;53.27
16793;BME280;8513;42.662;23.350;2023-04-06T01:53:55;94570.34;;;1.61;52.87
16793;BME280;8513;42.662;23.350;2023-04-06T01:56:20;94570.41;;;1.36;53.56
16793;BME280;8513;42.662;23.350;2023-04-06T01:58:46;94580.31;;;1.54;53.38
16793;BME280;8513;42.662;23.350;2023-04-06T02:01:11;94566.16;;;1.47;53.43
16793;BME280;8513;42.662;23.350;2023-04-06T02:03:37;94573.13;;;1.34;53.96
16793;BME280;8513;42.662;23.350;2023-04-06T02:06:02;94558.56;;;1.44;53.93
16793;BME280;8513;42.662;23.350;2023-04-06T02:08:28;94559.81;;;1.39;53.69
16793;BME280;8513;42.662;23.350;2023-04-06T02:10:54;94566.44;;;1.56;53.19
16793;BME280;8513;42.662;23.350;2023-04-06T02:13:19;94559.41;;;1.45;53.30
16793;BME280;8513;42.662;23.350;2023-04-06T02:15:45;94558.78;;;1.41;53.69
16793;BME280;8513;42.662;23.350;2023-04-06T02:18:11;94556.34;;;1.64;53.00
16793;BME280;8513;42.662;23.350;2023-04-06T02:20:36;94558.50;;;1.70;52.99
16793;BME280;8513;42.662;23.350;2023-04-06T02:23:01;94561.72;;;1.37;53.54
16793;BME280;8513;42.662;23.350;2023-04-06T02:25:27;94558.56;;;1.44;53.63
16793;BME280;8513;42.662;23.350;2023-04-06T02:27:53;94558.13;;;1.63;53.27
16793;BME280;8513;42.662;23.350;2023-04-06T02:30:19;94557.41;;;1.61;53.18
16793;BME280;8513;42.662;23.350;2023-04-06T02:32:44;94549.50;;;1.63;53.17
16793;BME280;8513;42.662;23.350;2023-04-06T02:35:09;94552.28;;;1.36;53.76
16793;BME280;8513;42.662;23.350;2023-04-06T02:37:35;94563.50;;;1.60;53.32
16793;BME280;8513;42.662;23.350;2023-04-06T02:40:01;94542.56;;;1.63;53.39
16793;BME280;8513;42.662;23.350;2023-04-06T02:42:26;94567.25;;;1.56;53.33
16793;BME280;8513;42.662;23.350;2023-04-06T02:44:51;94557.63;;;1.58;53.42
16793;BME280;8513;42.662;23.350;2023-04-06T02:47:17;94550.94;;;1.67;53.19
16793;BME280;8513;42.662;23.350;2023-04-06T02:49:42;94559.50;;;1.43;54.03
16793;BME280;8513;42.662;23.350;2023-04-06T02:52:08;94561.13;;;1.57;53.90
16793;BME280;8513;42.662;23.350;2023-04-06T02:54:33;94558.25;;;1.49;53.91
16793;BME280;8513;42.662;23.350;2023-04-06T02:56:59;94570.06;;;1.53;53.63
16793;BME280;8513;42.662;23.350;2023-04-06T02:59:24;94552.34;;;1.47;54.15
16793;BME280;8513;42.662;23.350;2023-04-06T03:04:26;94545.84;;;1.65;53.39
16793;BME280;8513;42.662;23.350;2023-04-06T03:06:53;94545.63;;;1.68;53.32
16793;BME280;8513;42.662;23.350;2023-04-06T03:09:19;94544.72;;;1.69;53.41
16793;BME280;8513;42.662;23.350;2023-04-06T03:11:44;94559.09;;;1.73;53.27
16793;BME280;8513;42.662;23.350;2023-04-06T03:14:10;94558.03;;;1.52;53.35
16793;BME280;8513;42.662;23.350;2023-04-06T03:16:36;94554.06;;;1.59;53.58
16793;BME280;8513;42.662;23.350;2023-04-06T03:19:01;94553.53;;;1.67;53.28
16793;BME280;8513;42.662;23.350;2023-04-06T03:21:27;94541.19;;;1.70;52.88
16793;BME280;8513;42.662;23.350;2023-04-06T03:23:52;94552.09;;;1.63;53.00
16793;BME280;8513;42.662;23.350;2023-04-06T03:26:18;94561.56;;;1.51;53.90
16793;BME280;8513;42.662;23.350;2023-04-06T03:28:43;94558.97;;;1.51;54.21
16793;BME280;8513;42.662;23.350;2023-04-06T03:31:09;94555.53;;;1.63;53.50
16793;BME280;8513;42.662;23.350;2023-04-06T03:33:34;94551.97;;;1.40;54.26
16793;BME280;8513;42.662;23.350;2023-04-06T03:36:00;94540.50;;;1.31;54.57
16793;BME280;8513;42.662;23.350;2023-04-06T03:38:25;94550.72;;;1.70;53.47
16793;BME280;8513;42.662;23.350;2023-04-06T03:40:51;94549.84;;;1.58;53.78
16793;BME280;8513;42.662;23.350;2023-04-06T03:43:16;94562.13;;;1.67;53.43
16793;BME280;8513;42.662;23.350;2023-04-06T03:45:41;94539.47;;;1.58;53.55
16793;BME280;8513;42.662;23.350;2023-04-06T03:48:07;94550.16;;;1.53;53.63
16793;BME280;8513;42.662;23.350;2023-04-06T03:50:32;94544.75;;;1.20;54.47
16793;BME280;8513;42.662;23.350;2023-04-06T03:52:58;94540.56;;;1.43;54.05
16793;BME280;8513;42.662;23.350;2023-04-06T03:55:23;94542.63;;;1.38;54.05
16793;BME280;8513;42.662;23.350;2023-04-06T03:57:49;94548.94;;;1.46;53.92
16793;BME280;8513;42.662;23.350;2023-04-06T04:00:15;94542.56;;;1.63;53.41
16793;BME280;8513;42.662;23.350;2023-04-06T04:02:40;94545.69;;;1.56;53.38
16793;BME280;8513;42.662;23.350;2023-04-06T04:05:06;94550.09;;;1.42;53.68
16793;BME280;8513;42.662;23.350;2023-04-06T04:07:31;94558.56;;;1.44;53.81
16793;BME280;8513;42.662;23.350;2023-04-06T04:09:57;94543.25;;;1.41;53.75
16793;BME280;8513;42.662;23.350;2023-04-06T04:12:22;94556.47;;;1.49;53.43
16793;BME280;8513;42.662;23.350;2023-04-06T04:14:48;94550.09;;;1.42;53.97
16793;BME280;8513;42.662;23.350;2023-04-06T04:17:13;94555.16;;;1.44;53.75
16793;BME280;8513;42.662;23.350;2023-04-06T04:19:39;94563.66;;;1.46;54.14
16793;BME280;8513;42.662;23.350;2023-04-06T04:22:04;94549.50;;;1.63;53.28
16793;BME280;8513;42.662;23.350;2023-04-06T04:24:30;94542.94;;;1.70;53.36
16793;BME280;8513;42.662;23.350;2023-04-06T04:26:56;94556.41;;;1.75;53.15
16793;BME280;8513;42.662;23.350;2023-04-06T04:29:22;94556.72;;;1.94;52.79
16793;BME280;8513;42.662;23.350;2023-04-06T04:31:49;94552.44;;;1.82;52.66
16793;BME280;8513;42.662;23.350;2023-04-06T04:34:15;94560.28;;;1.93;52.88
16793;BME280;8513;42.662;23.350;2023-04-06T04:36:40;94562.63;;;1.72;52.97
16793;BME280;8513;42.662;23.350;2023-04-06T04:39:07;94553.63;;;1.65;53.24
16793;BME280;8513;42.662;23.350;2023-04-06T04:41:33;94556.06;;;1.56;53.61
16793;BME280;8513;42.662;23.350;2023-04-06T04:43:58;94548.53;;;1.76;53.07
16793;BME280;8513;42.662;23.350;2023-04-06T04:46:24;94554.31;;;2.04;52.41
16793;BME280;8513;42.662;23.350;2023-04-06T04:48:49;94549.72;;;1.84;52.63
16793;BME280;8513;42.662;23.350;2023-04-06T04:51:15;94556.91;;;1.80;53.10
16793;BME280;8513;42.662;23.350;2023-04-06T04:53:40;94547.34;;;1.81;53.09
16793;BME280;8513;42.662;23.350;2023-04-06T04:56:06;94553.25;;;1.83;52.79
16793;BME280;8513;42.662;23.350;2023-04-06T04:58:31;94544.00;;;1.67;53.64
16793;BME280;8513;42.662;23.350;2023-04-06T05:00:57;94550.94;;;1.91;52.97
16793;BME280;8513;42.662;23.350;2023-04-06T05:03:24;94554.69;;;1.87;52.80
16793;BME280;8513;42.662;23.350;2023-04-06T05:05:50;94552.03;;;1.99;52.86
16793;BME280;8513;42.662;23.350;2023-04-06T05:08:16;94548.34;;;1.91;52.86
16793;BME280;8513;42.662;23.350;2023-04-06T05:10:41;94550.72;;;1.94;52.83
16793;BME280;8513;42.662;23.350;2023-04-06T05:13:07;94537.94;;;2.04;52.59
16793;BME280;8513;42.662;23.350;2023-04-06T05:15:33;94543.53;;;1.97;53.54
16793;BME280;8513;42.662;23.350;2023-04-06T05:18:04;94544.09;;;2.14;52.87
16793;BME280;8513;42.662;23.350;2023-04-06T05:20:29;94563.72;;;2.05;52.55
16793;BME280;8513;42.662;23.350;2023-04-06T05:22:55;94560.22;;;2.06;52.89
16793;BME280;8513;42.662;23.350;2023-04-06T05:25:21;94545.50;;;2.18;52.38
16793;BME280;8513;42.662;23.350;2023-04-06T05:27:47;94557.22;;;1.99;52.68
16793;BME280;8513;42.662;23.350;2023-04-06T05:30:12;94561.88;;;2.07;53.30
16793;BME280;8513;42.662;23.350;2023-04-06T05:32:38;94547.03;;;2.09;53.11
16793;BME280;8513;42.662;23.350;2023-04-06T05:35:04;94551.78;;;2.27;52.74
16793;BME280;8513;42.662;23.350;2023-04-06T05:37:29;94548.44;;;2.13;52.89
16793;BME280;8513;42.662;23.350;2023-04-06T05:39:55;94546.88;;;2.11;53.28
16793;BME280;8513;42.662;23.350;2023-04-06T05:42:22;94554.03;;;2.31;53.22
16793;BME280;8513;42.662;23.350;2023-04-06T05:44:47;94558.22;;;1.86;54.17
16793;BME280;8513;42.662;23.350;2023-04-06T05:47:13;94553.56;;;2.26;53.60
16793;BME280;8513;42.662;23.350;2023-04-06T05:49:38;94547.31;;;2.29;53.19
16793;BME280;8513;42.662;23.350;2023-04-06T05:52:04;94546.53;;;2.39;53.01
16793;BME280;8513;42.662;23.350;2023-04-06T05:54:29;94543.63;;;2.55;52.57
16793;BME280;8513;42.662;23.350;2023-04-06T05:56:55;94537.34;;;2.47;53.03
16793;BME280;8513;42.662;23.350;2023-04-06T05:59:21;94542.19;;;2.51;53.07
16793;BME280;8513;42.662;23.350;2023-04-06T06:01:46;94538.09;;;2.60;53.38
16793;BME280;8513;42.662;23.350;2023-04-06T06:04:11;94539.63;;;2.62;53.27
16793;BME280;8513;42.662;23.350;2023-04-06T06:06:37;94544.72;;;2.86;52.30
16793;BME280;8513;42.662;23.350;2023-04-06T06:09:03;94534.19;;;2.65;53.22
16793;BME280;8513;42.662;23.350;2023-04-06T06:11:29;94534.44;;;2.74;53.38
16793;BME280;8513;42.662;23.350;2023-04-06T06:13:55;94528.44;;;2.84;52.97
16793;BME280;8513;42.662;23.350;2023-04-06T06:16:21;94531.75;;;3.09;52.09
16793;BME280;8513;42.662;23.350;2023-04-06T06:18:47;94535.41;;;3.06;52.02
16793;BME280;8513;42.662;23.350;2023-04-06T06:21:12;94527.59;;;3.18;52.10
16793;BME280;8513;42.662;23.350;2023-04-06T06:23:38;94532.56;;;2.98;51.81
16793;BME280;8513;42.662;23.350;2023-04-06T06:26:04;94539.69;;;3.07;52.22
16793;BME280;8513;42.662;23.350;2023-04-06T06:28:30;94533.63;;;2.96;53.03
16793;BME280;8513;42.662;23.350;2023-04-06T06:30:56;94541.28;;;3.31;52.54
16793;BME280;8513;42.662;23.350;2023-04-06T06:33:21;94531.69;;;3.65;51.87
16793;BME280;8513;42.662;23.350;2023-04-06T06:35:47;94530.28;;;3.50;52.55
16793;BME280;8513;42.662;23.350;2023-04-06T06:38:12;94526.22;;;3.68;51.28
16793;BME280;8513;42.662;23.350;2023-04-06T06:40:39;94530.56;;;3.79;51.33
16793;BME280;8513;42.662;23.350;2023-04-06T06:43:04;94529.41;;;3.83;51.26
16793;BME280;8513;42.662;23.350;2023-04-06T06:45:30;94529.44;;;4.04;50.71
16793;BME280;8513;42.662;23.350;2023-04-06T06:47:56;94537.28;;;3.93;51.12
16793;BME280;8513;42.662;23.350;2023-04-06T06:50:21;94520.69;;;4.05;50.42
16793;BME280;8513;42.662;23.350;2023-04-06T06:52:46;94541.38;;;4.07;50.32
16793;BME280;8513;42.662;23.350;2023-04-06T06:55:12;94534.31;;;3.97;50.79
16793;BME280;8513;42.662;23.350;2023-04-06T06:57:38;94534.50;;;4.06;50.62
16793;BME280;8513;42.662;23.350;2023-04-06T07:00:04;94538.22;;;3.92;50.57
16793;BME280;8513;42.662;23.350;2023-04-06T07:02:31;94529.44;;;3.61;51.42
16793;BME280;8513;42.662;23.350;2023-04-06T07:04:56;94532.50;;;3.77;50.81
16793;BME280;8513;42.662;23.350;2023-04-06T07:07:22;94522.50;;;3.93;50.43
16793;BME280;8513;42.662;23.350;2023-04-06T07:09:47;94524.41;;;3.91;50.61
16793;BME280;8513;42.662;23.350;2023-04-06T07:12:13;94518.63;;;3.88;50.93
16793;BME280;8513;42.662;23.350;2023-04-06T07:14:38;94525.91;;;4.26;49.66
16793;BME280;8513;42.662;23.350;2023-04-06T07:17:04;94526.44;;;4.09;50.24
16793;BME280;8513;42.662;23.350;2023-04-06T07:19:29;94513.50;;;3.97;50.12
16793;BME280;8513;42.662;23.350;2023-04-06T07:21:55;94525.56;;;3.98;50.97
16793;BME280;8513;42.662;23.350;2023-04-06T07:24:21;94523.69;;;4.22;49.41
16793;BME280;8513;42.662;23.350;2023-04-06T07:26:46;94517.09;;;4.17;49.48
16793;BME280;8513;42.662;23.350;2023-04-06T07:29:12;94523.75;;;4.31;49.43
16793;BME280;8513;42.662;23.350;2023-04-06T07:31:37;94518.72;;;4.18;49.54
16793;BME280;8513;42.662;23.350;2023-04-06T07:34:03;94521.34;;;4.18;49.69
16793;BME280;8513;42.662;23.350;2023-04-06T07:36:29;94526.44;;;4.20;49.97
16793;BME280;8513;42.662;23.350;2023-04-06T07:38:54;94510.59;;;4.33;49.46
16793;BME280;8513;42.662;23.350;2023-04-06T07:41:20;94527.06;;;4.33;48.48
16793;BME280;8513;42.662;23.350;2023-04-06T07:43:45;94532.19;;;4.24;49.07
16793;BME280;8513;42.662;23.350;2023-04-06T07:46:11;94530.63;;;4.32;49.29
16793;BME280;8513;42.662;23.350;2023-04-06T07:48:36;94514.94;;;4.23;49.61
16793;BME280;8513;42.662;23.350;2023-04-06T07:51:03;94524.03;;;4.28;49.49
16793;BME280;8513;42.662;23.350;2023-04-06T07:53:29;94528.06;;;4.21;50.21
16793;BME280;8513;42.662;23.350;2023-04-06T07:55:55;94518.22;;;4.25;49.64
16793;BME280;8513;42.662;23.350;2023-04-06T07:58:21;94516.06;;;4.30;49.34
16793;BME280;8513;42.662;23.350;2023-04-06T08:00:46;94513.34;;;4.31;49.58
16793;BME280;8513;42.662;23.350;2023-04-06T08:03:12;94522.06;;;4.41;49.46
16793;BME280;8513;42.662;23.350;2023-04-06T08:05:37;94525.31;;;4.55;49.45
16793;BME280;8513;42.662;23.350;2023-04-06T08:08:03;94524.59;;;4.53;48.90
16793;BME280;8513;42.662;23.350;2023-04-06T08:10:28;94511.13;;;4.48;49.24
16793;BME280;8513;42.662;23.350;2023-04-06T08:12:54;94518.13;;;4.68;48.59
16793;BME280;8513;42.662;23.350;2023-04-06T08:15:20;94517.50;;;4.55;48.94
16793;BME280;8513;42.662;23.350;2023-04-06T08:17:45;94516.19;;;4.70;48.76
16793;BME280;8513;42.662;23.350;2023-04-06T08:20:10;94513.97;;;4.86;48.03
16793;BME280;8513;42.662;23.350;2023-04-06T08:22:36;94509.31;;;4.90;48.03
16793;BME280;8513;42.662;23.350;2023-04-06T08:25:01;94519.81;;;4.79;48.61
16793;BME280;8513;42.662;23.350;2023-04-06T08:27:27;94526.31;;;4.94;48.17
16793;BME280;8513;42.662;23.350;2023-04-06T08:29:52;94521.78;;;5.17;47.18
16793;BME280;8513;42.662;23.350;2023-04-06T08:32:18;94535.06;;;5.14;47.38
16793;BME280;8513;42.662;23.350;2023-04-06T08:34:43;94522.91;;;4.94;47.38
16793;BME280;8513;42.662;23.350;2023-04-06T08:37:09;94519.75;;;4.90;46.82
16793;BME280;8513;42.662;23.350;2023-04-06T08:39:35;94521.22;;;4.83;48.30
16793;BME280;8513;42.662;23.350;2023-04-06T08:42:01;94523.69;;;5.15;47.64
16793;BME280;8513;42.662;23.350;2023-04-06T08:44:29;94528.63;;;5.18;46.36
16793;BME280;8513;42.662;23.350;2023-04-06T08:46:55;94525.00;;;5.00;46.41
16793;BME280;8513;42.662;23.350;2023-04-06T08:49:21;94532.81;;;5.00;46.48
16793;BME280;8513;42.662;23.350;2023-04-06T08:51:47;94536.19;;;4.91;46.28
16793;BME280;8513;42.662;23.350;2023-04-06T08:54:12;94530.25;;;4.79;45.95
16793;BME280;8513;42.662;23.350;2023-04-06T08:56:38;94518.28;;;4.97;45.21
16793;BME280;8513;42.662;23.350;2023-04-06T08:59:05;94514.63;;;4.79;46.22
16793;BME280;8513;42.662;23.350;2023-04-06T09:01:33;94519.25;;;4.75;46.03
16793;BME280;8513;42.662;23.350;2023-04-06T09:04:01;94531.16;;;4.99;45.40
16793;BME280;8513;42.662;23.350;2023-04-06T09:06:30;94513.34;;;4.73;46.13
16793;BME280;8513;42.662;23.350;2023-04-06T09:08:56;94514.97;;;4.95;45.13
16793;BME280;8513;42.662;23.350;2023-04-06T09:11:23;94512.50;;;4.73;46.19
16793;BME280;8513;42.662;23.350;2023-04-06T09:13:50;94510.13;;;4.91;45.81
16793;BME280;8513;42.662;23.350;2023-04-06T09:16:17;94514.84;;;5.37;44.75
16793;BME280;8513;42.662;23.350;2023-04-06T09:18:44;94521.69;;;5.28;44.97
16793;BME280;8513;42.662;23.350;2023-04-06T09:21:10;94519.25;;;5.37;44.34
16793;BME280;8513;42.662;23.350;2023-04-06T09:23:36;94497.56;;;5.36;44.70
16793;BME280;8513;42.662;23.350;2023-04-06T09:26:14;94514.81;;;5.68;44.14
16793;BME280;8513;42.662;23.350;2023-04-06T09:28:52;94504.66;;;5.84;44.14
16793;BME280;8513;42.662;23.350;2023-04-06T09:31:28;94513.72;;;5.90;43.86
16793;BME280;8513;42.662;23.350;2023-04-06T09:33:56;94505.28;;;6.07;44.01
16793;BME280;8513;42.662;23.350;2023-04-06T09:36:37;94510.50;;;6.27;43.27
16793;BME280;8513;42.662;23.350;2023-04-06T09:39:07;94510.34;;;6.18;43.72
16793;BME280;8513;42.662;23.350;2023-04-06T09:41:36;94506.25;;;6.26;42.93
16793;BME280;8513;42.662;23.350;2023-04-06T09:44:05;94501.44;;;6.31;41.81
16793;BME280;8513;42.662;23.350;2023-04-06T09:46:32;94515.00;;;6.25;41.91
16793;BME280;8513;42.662;23.350;2023-04-06T09:49:01;94512.56;;;6.13;42.08
16793;BME280;8513;42.662;23.350;2023-04-06T09:51:30;94508.97;;;6.24;42.23
16793;BME280;8513;42.662;23.350;2023-04-06T09:53:56;94514.50;;;6.31;42.79
16793;BME280;8513;42.662;23.350;2023-04-06T09:56:28;94523.09;;;6.70;40.96
16793;BME280;8513;42.662;23.350;2023-04-06T09:59:01;94528.63;;;6.38;40.93
16793;BME280;8513;42.662;23.350;2023-04-06T10:01:29;94508.56;;;6.58;41.57
16793;BME280;8513;42.662;23.350;2023-04-06T10:04:13;94502.56;;;6.85;41.68
16793;BME280;8513;42.662;23.350;2023-04-06T10:06:46;94523.03;;;6.99;41.03
16793;BME280;8513;42.662;23.350;2023-04-06T10:09:13;94503.16;;;7.16;41.48
16793;BME280;8513;42.662;23.350;2023-04-06T10:11:40;94515.28;;;7.07;40.93
16793;BME280;8513;42.662;23.350;2023-04-06T10:14:06;94508.34;;;7.54;39.45
16793;BME280;8513;42.662;23.350;2023-04-06T10:16:32;94528.13;;;7.66;37.64
16793;BME280;8513;42.662;23.350;2023-04-06T10:19:12;94502.28;;;7.35;38.80
16793;BME280;8513;42.662;23.350;2023-04-06T10:21:39;94508.69;;;7.68;38.26
16793;BME280;8513;42.662;23.350;2023-04-06T10:24:08;94513.00;;;7.87;36.81
16793;BME280;8513;42.662;23.350;2023-04-06T10:26:37;94520.09;;;7.49;37.19
16793;BME280;8513;42.662;23.350;2023-04-06T10:29:04;94510.47;;;7.13;38.76
16793;BME280;8513;42.662;23.350;2023-04-06T10:31:30;94500.19;;;7.39;38.23
16793;BME280;8513;42.662;23.350;2023-04-06T10:33:59;94494.91;;;7.48;38.87
16793;BME280;8513;42.662;23.350;2023-04-06T10:36:27;94492.13;;;7.50;38.14
16793;BME280;8513;42.662;23.350;2023-04-06T10:39:04;94500.06;;;7.86;37.64
16793;BME280;8513;42.662;23.350;2023-04-06T10:41:49;94500.34;;;7.83;37.61
16793;BME280;8513;42.662;23.350;2023-04-06T10:44:21;94494.16;;;7.84;37.45
16793;BME280;8513;42.662;23.350;2023-04-06T10:46:57;94484.72;;;7.73;37.41
16793;BME280;8513;42.662;23.350;2023-04-06T10:49:25;94488.31;;;7.90;37.31
16793;BME280;8513;42.662;23.350;2023-04-06T10:51:55;94489.34;;;8.15;36.67
16793;BME280;8513;42.662;23.350;2023-04-06T10:54:22;94489.06;;;8.54;36.03
16793;BME280;8513;42.662;23.350;2023-04-06T10:56:49;94495.13;;;8.54;36.66
16793;BME280;8513;42.662;23.350;2023-04-06T10:59:21;94492.53;;;8.80;36.07
16793;BME280;8513;42.662;23.350;2023-04-06T11:01:47;94474.31;;;9.05;34.92
16793;BME280;8513;42.662;23.350;2023-04-06T11:04:19;94486.91;;;8.93;34.84
16793;BME280;8513;42.662;23.350;2023-04-06T11:06:49;94477.56;;;8.73;35.82
16793;BME280;8513;42.662;23.350;2023-04-06T11:09:28;94474.81;;;8.74;35.92
16793;BME280;8513;42.662;23.350;2023-04-06T11:11:54;94478.31;;;8.83;35.67
16793;BME280;8513;42.662;23.350;2023-04-06T11:14:21;94473.09;;;8.91;35.83
16793;BME280;8513;42.662;23.350;2023-04-06T11:16:47;94482.94;;;9.23;35.20
16793;BME280;8513;42.662;23.350;2023-04-06T11:19:16;94482.28;;;8.95;35.25
16793;BME280;8513;42.662;23.350;2023-04-06T11:21:48;94461.53;;;9.02;35.04
16793;BME280;8513;42.662;23.350;2023-04-06T11:24:22;94473.19;;;9.08;35.67
16793;BME280;8513;42.662;23.350;2023-04-06T11:26:55;94469.13;;;9.47;34.71
16793;BME280;8513;42.662;23.350;2023-04-06T11:29:24;94461.81;;;8.91;35.58
16793;BME280;8513;42.662;23.350;2023-04-06T11:31:52;94458.03;;;8.67;36.48
16793;BME280;8513;42.662;23.350;2023-04-06T11:34:22;94449.00;;;8.61;36.34
16793;BME280;8513;42.662;23.350;2023-04-06T11:36:58;94464.88;;;8.60;36.09
16793;BME280;8513;42.662;23.350;2023-04-06T11:39:26;94459.09;;;8.74;36.04
16793;BME280;8513;42.662;23.350;2023-04-06T11:41:54;94446.44;;;8.70;36.36
16793;BME280;8513;42.662;23.350;2023-04-06T11:44:32;94449.94;;;8.34;36.62
16793;BME280;8513;42.662;23.350;2023-04-06T11:46:58;94460.91;;;8.38;36.28
16793;BME280;8513;42.662;23.350;2023-04-06T11:49:30;94449.13;;;8.16;37.76
16793;BME280;8513;42.662;23.350;2023-04-06T11:51:57;94459.56;;;8.34;37.15
16793;BME280;8513;42.662;23.350;2023-04-06T11:54:33;94451.56;;;8.35;36.85
16793;BME280;8513;42.662;23.350;2023-04-06T11:56:59;94449.25;;;8.32;36.40
16793;BME280;8513;42.662;23.350;2023-04-06T11:59:26;94444.63;;;8.08;37.18
16793;BME280;8513;42.662;23.350;2023-04-06T12:01:52;94451.81;;;7.88;37.74
16793;BME280;8513;42.662;23.350;2023-04-06T12:04:19;94450.75;;;7.99;37.99
16793;BME280;8513;42.662;23.350;2023-04-06T12:06:44;94454.88;;;8.02;37.32
16793;BME280;8513;42.662;23.350;2023-04-06T12:09:10;94448.56;;;7.59;38.80
16793;BME280;8513;42.662;23.350;2023-04-06T12:11:35;94447.69;;;7.68;37.81
16793;BME280;8513;42.662;23.350;2023-04-06T12:14:01;94448.09;;;7.45;38.13
16793;BME280;8513;42.662;23.350;2023-04-06T12:16:27;94445.19;;;7.48;38.67
16793;BME280;8513;42.662;23.350;2023-04-06T12:18:52;94437.84;;;7.34;39.04
16793;BME280;8513;42.662;23.350;2023-04-06T12:21:17;94442.28;;;7.24;39.35
16793;BME280;8513;42.662;23.350;2023-04-06T12:23:43;94453.06;;;7.48;39.29
16793;BME280;8513;42.662;23.350;2023-04-06T12:26:08;94452.03;;;7.59;38.67
16793;BME280;8513;42.662;23.350;2023-04-06T12:28:34;94454.25;;;7.54;39.01
16793;BME280;8513;42.662;23.350;2023-04-06T12:30:59;94453.91;;;7.39;39.66
16793;BME280;8513;42.662;23.350;2023-04-06T12:33:25;94443.53;;;7.47;38.80
16793;BME280;8513;42.662;23.350;2023-04-06T12:35:50;94451.22;;;7.31;38.70
16793;BME280;8513;42.662;23.350;2023-04-06T12:38:16;94440.34;;;7.26;38.64
16793;BME280;8513;42.662;23.350;2023-04-06T12:40:42;94437.75;;;6.98;39.21
16793;BME280;8513;42.662;23.350;2023-04-06T12:43:07;94438.44;;;7.00;39.22
16793;BME280;8513;42.662;23.350;2023-04-06T12:45:34;94430.31;;;6.94;39.16
16793;BME280;8513;42.662;23.350;2023-04-06T12:47:59;94430.28;;;7.03;39.13
16793;BME280;8513;42.662;23.350;2023-04-06T12:50:25;94431.06;;;7.14;38.95
16793;BME280;8513;42.662;23.350;2023-04-06T12:52:51;94424.59;;;7.08;38.77
16793;BME280;8513;42.662;23.350;2023-04-06T12:55:17;94430.47;;;6.92;39.07
16793;BME280;8513;42.662;23.350;2023-04-06T12:57:42;94425.38;;;6.91;38.90
16793;BME280;8513;42.662;23.350;2023-04-06T13:00:08;94420.44;;;6.88;39.63
16793;BME280;8513;42.662;23.350;2023-04-06T13:02:34;94416.63;;;7.10;39.31
16793;BME280;8513;42.662;23.350;2023-04-06T13:04:59;94404.94;;;7.14;38.77
16793;BME280;8513;42.662;23.350;2023-04-06T13:07:25;94415.00;;;7.09;39.39
16793;BME280;8513;42.662;23.350;2023-04-06T13:09:51;94413.97;;;6.92;39.81